Terminal Aerodrome Forecast
Issued by NWS

Home | Current Version | Previous Version | Text Only | Print | Product List | Glossary On
Versions: 1 2 3 4 5 6 7 8 9 10 11 12 13 14 15 16 17 18 19 20 21
000
FTUS43 KILX 201150
TAFDEC
TAF
KDEC 201150Z 2012/2112 15008KT 1/2SM FG VV002
     FM201500 15014KT 1 1/2SM BR OVC004
     FM201700 15014G22KT P6SM SCT035 BKN200
     FM210300 18012G18KT 4SM -SHRA BR VCTS SCT015CB OVC035
     FM210700 20010KT 4SM -SHRA BR VCTS OVC015CB=

USA.gov is the U.S. government's official web portal to all federal, state and local government web resources and services.